Latest Coastal Weather Observations for Weipa

IDQ60701

Issued at 7:01 am EST Wednesday 22 February 2017 (issued every 10 minutes, with the page automatically refreshed every 10 minutes)

About coastal observations | Map of coastal stations | Coastal observations for QLD | Marine services | Other Formats
Station Details ID: 027045 Name: WEIPA AERO Lat: -12.68 Lon: 141.92 Height: 17.96 m
Data from the previous 72 hours. | See also: Recent months at Weipa
Date/Time
EST
Temp
°C
Wind Pressure Rain since
9am
mm
Weather Cloud Vis
km
Sea
Height
m
Swell
Dir  Spd
kts
Gust
kts
hPa Trend Height
m
Period
s
Dir
22/06:30am 24.8 ENE 3 4 1010.7 - 0.6 - - 10 - - - -
22/06:00am 24.8 E 3 5 1010.2 - 0.6 - - 10 - - - -
22/05:30am 24.9 E 3 4 1010.1 - 0.6 - - 10 - - - -
22/05:00am 25.0 E 2 3 1009.9 - 0.6 - - 10 - - - -
22/04:30am 25.1 ENE 3 6 1009.8 - 0.6 - - 10 - - - -
22/04:00am 25.1 CALM 0 2 1009.5 - 0.6 - - 10 - - - -
22/03:30am 25.2 ENE 2 3 1009.3 - 0.6 - - 10 - - - -
22/03:00am 25.3 ENE 3 4 1009.5 - 0.6 - - 10 - - - -
22/02:30am 25.4 E 3 3 1009.8 - 0.6 - - 10 - - - -
22/02:00am 25.5 ENE 3 4 1010.1 - 0.6 - - 10 - - - -
22/01:30am 25.6 ENE 4 5 1010.3 - 0.6 - - 10 - - - -
22/01:00am 25.8 NE 4 5 1010.6 - 0.6 - - 10 - - - -
22/12:30am 25.9 NE 4 7 1011.1 - 0.6 - - 10 - - - -
22/12:00am 26.0 NE 4 7 1011.2 - 0.6 - - 10 - - - -
 
Date/Time
EST
Temp
°C
Wind Pressure Rain since
9am
mm
Weather Cloud Vis
km
Sea
Height
m
Swell
Dir  Spd
kts
Gust
kts
hPa Trend Height
m
Period
s
Dir
21/11:30pm 25.9 NE 3 5 1011.8 - 0.6 - - 10 - - - -
21/11:00pm 25.9 ENE 3 4 1011.6 - 0.6 - - 10 - - - -
21/10:30pm 26.2 NE 2 3 1011.4 - 0.6 - - 10 - - - -
21/10:00pm 26.5 NNE 3 4 1011.4 - 0.6 - Partly cloudy 10 - - - -
21/09:30pm 26.3 NNE 3 5 1011.0 - 0.6 - - 10 - - - -
21/09:00pm 26.6 NE 3 4 1010.6 - 0.6 - - 10 - - - -
21/08:30pm 26.7 CALM 0 0 1010.5 - 0.6 - - 10 - - - -
21/08:00pm 26.8 CALM 0 0 1010.3 - 0.6 - Partly cloudy 10 - - - -
21/07:30pm 27.0 CALM 0 0 1010.1 - 0.6 - Partly cloudy 10 - - - -
21/07:00pm 27.4 CALM 0 0 1009.9 - 0.6 - - 10 - - - -
21/06:30pm 27.7 CALM 0 0 1009.3 - 0.6 - - 10 - - - -
21/06:00pm 27.9 NE 2 3 1008.7 - 0.6 - Mostly clear 10 - - - -
21/05:30pm 28.0 N 2 4 1008.7 - 0.6 - - 10 - - - -
21/05:00pm 28.1 N 4 6 1008.6 - 0.6 - Partly cloudy 10 - - - -
21/04:30pm 28.0 N 5 6 1008.8 - 0.4 - - 10 - - - -
21/04:00pm 27.7 NNE 6 10 1008.9 - 0.4 - Partly cloudy 10 - - - -
21/03:50pm 27.6 N 7 10 1009.0 - 0.4 - Partly cloudy 10 - - - -
21/03:34pm 27.4 NNE 4 7 1009.2 - 0.4 - Partly cloudy 10 - - - -
21/03:30pm 27.5 NNE 4 6 1009.2 - 0.4 - Partly cloudy 10 - - - -
21/03:00pm 27.7 N 6 9 1008.9 - 0.4 - - 10 - - - -
21/02:30pm 27.7 N 8 12 1009.3 - 0.4 - Partly cloudy 10 - - - -
21/02:00pm 27.6 N 8 12 1009.9 - 0.4 - - 10 - - - -
21/01:30pm 27.5 N 7 12 1010.6 - 0.4 - - 10 - - - -
21/01:00pm 27.2 N 7 12 1011.0 - 0.4 - - 10 - - - -
21/12:30pm 26.8 N 7 10 1011.5 - 0.4 - Partly cloudy 10 - - - -
21/12:00pm 26.0 NNE 6 9 1011.6 - 0.4 - Partly cloudy 10 - - - -
21/11:30am 25.7 NNE 5 9 1011.9 - 0.4 - - 9 - - - -
21/11:00am 25.9 N 7 11 1012.2 - 0.2 - - 10 - - - -
21/10:30am 26.0 NNE 7 11 1012.1 - 0.0 - Partly cloudy 10 - - - -
21/10:00am 25.4 NNE 7 11 1012.1 - 0.0 - Partly cloudy 10 - - - -
21/09:30am 25.2 NNE 7 11 1011.6 - 0.0 - Partly cloudy 10 - - - -
21/09:00am 25.0 NNE 8 13 1011.7 - 5.0 - Cloudy 10 - - - -
21/08:30am 25.3 N 9 13 1011.3 - 5.0 - Partly cloudy 10 - - - -
21/08:00am 24.7 NNE 4 7 1010.7 - 5.0 - Partly cloudy 10 - - - -
21/07:30am 24.7 NNE 4 6 1010.2 - 5.0 - Partly cloudy 10 - - - -
21/07:00am 24.9 NE 6 11 1009.9 - 5.0 - Partly cloudy 10 - - - -
21/06:30am 25.0 ENE 4 6 1009.4 - 5.0 - Partly cloudy 10 - - - -
21/06:18am 24.9 NE 5 6 1009.2 - 5.0 - Partly cloudy 9 - - - -
21/06:00am 25.1 N 6 13 1009.3 - 4.4 - Cloudy 4 - - - -
21/05:57am 25.2 N 6 11 1009.4 - 4.0 - Partly cloudy 6 - - - -
21/05:30am 25.2 NE 5 8 1008.9 - 3.4 - Partly cloudy 9 - - - -
21/05:00am 25.2 ENE 5 10 1008.4 - 3.2 - - 10 - - - -
21/04:30am 25.2 NE 5 7 1008.1 - 3.2 - - 10 - - - -
21/04:00am 25.3 ENE 5 8 1008.2 - 3.2 - Partly cloudy 10 - - - -
21/03:30am 25.5 NE 5 9 1008.3 - 3.2 - Partly cloudy 10 - - - -
21/03:00am 25.5 ENE 6 9 1008.0 - 3.2 - Mostly cloudy 10 - - - -
21/02:30am 25.4 ENE 5 8 1008.4 - 3.2 - - 10 - - - -
21/02:00am 25.5 ENE 4 6 1008.7 - 3.2 - - 10 - - - -
21/01:30am 25.4 ENE 4 7 1008.9 - 3.2 - - 10 - - - -
21/01:00am 25.5 ENE 3 5 1009.0 - 3.2 - Partly cloudy 10 - - - -
21/12:30am 25.6 NE 4 5 1009.5 - 3.2 - Partly cloudy 10 - - - -
21/12:00am 25.5 NNE 4 5 1009.5 - 3.2 - - - - - - -
 
Date/Time
EST
Temp
°C
Wind Pressure Rain since
9am
mm
Weather Cloud Vis
km
Sea
Height
m
Swell
Dir  Spd
kts
Gust
kts
hPa Trend Height
m
Period
s
Dir
20/11:30pm 25.7 NE 4 7 1009.6 - 3.2 - - - - - - -
20/11:00pm 25.8 NE 5 6 1009.6 - 3.2 - - - - - - -
20/10:30pm 25.8 NE 5 7 1009.6 - 3.2 - - - - - - -
20/10:00pm 25.9 NE 4 6 1009.5 - 3.2 - - 10 - - - -
20/09:30pm 26.0 NE 4 7 1009.6 - 3.2 - - 10 - - - -
20/09:00pm 25.9 NE 3 5 1009.1 - 3.2 - Mostly clear 10 - - - -
20/08:30pm 25.8 ENE 2 3 1009.0 - 3.2 - Partly cloudy 10 - - - -
20/08:00pm 26.1 CALM 0 2 1008.7 - 3.2 - - 10 - - - -
20/07:30pm 26.0 N 3 4 1008.2 - 3.2 - - 10 - - - -
20/07:00pm 26.0 N 1 3 1007.8 - 3.2 - - 10 - - - -
20/06:30pm 26.2 N 6 9 1007.4 - 3.2 - - 10 - - - -
20/06:00pm 26.2 N 5 9 1007.2 - 3.2 - - - - - - -
20/05:30pm 25.9 NW 12 17 1007.2 - 3.0 - Partly cloudy - - - - -
20/05:00pm 28.2 NNW 11 20 1007.0 - 2.8 - Partly cloudy - - - - -
20/04:30pm 29.2 N 9 15 1006.9 - 2.8 - - 10 - - - -
20/04:00pm 29.6 NNW 13 19 1007.0 - 2.8 - Partly cloudy 10 - - - -
20/03:30pm 29.9 NNW 11 17 1006.8 - 2.8 - Partly cloudy 10 - - - -
20/03:00pm 29.9 NNW 11 16 1006.3 - 2.8 - - 10 - - - -
20/02:30pm 29.2 NNW 10 15 1007.3 - 2.8 - Partly cloudy 10 - - - -
20/02:22pm 28.3 NNW 10 13 1007.3 - 2.8 - Partly cloudy 10 - - - -
20/02:00pm 27.4 N 11 21 1007.8 - 2.2 - Partly cloudy 9 - - - -
20/01:44pm 27.9 NNW 12 19 1007.7 - 1.0 - Partly cloudy 5 - - - -
20/01:30pm 30.3 N 13 18 1007.8 - 0.0 - Partly cloudy 10 - - - -
20/01:00pm 29.6 N 13 21 1008.1 - 0.0 - Partly cloudy 10 - - - -
20/12:30pm 29.0 N 11 17 1008.8 - 0.0 - - 10 - - - -
20/12:00pm 29.4 NNE 13 19 1008.8 - 0.0 - - 10 - - - -
20/11:30am 29.8 N 13 22 1009.2 - 0.0 - Partly cloudy 10 - - - -
20/11:00am 29.7 N 10 14 1009.2 - 0.0 - Partly cloudy 10 - - - -
20/10:30am 28.2 NNE 7 12 1009.7 - 0.0 - Partly cloudy 10 - - - -
20/10:00am 27.9 NNE 8 13 1009.7 - 0.0 - Partly cloudy 10 - - - -
20/09:30am 26.9 NE 7 11 1009.9 - 0.0 - - - - - - -
20/09:00am 26.8 NE 6 8 1009.2 - 12.4 - - 10 - - - -
20/08:30am 26.1 NE 5 10 1009.4 - 12.4 - - 10 - - - -
20/08:00am 25.3 ENE 6 8 1009.2 - 12.4 - - 10 - - - -
20/07:30am 24.9 NE 4 6 1009.2 - 12.4 - - 10 - - - -
20/07:00am 24.8 ENE 5 9 1008.9 - 12.4 - - 10 - - - -
20/06:30am 24.7 ENE 4 6 1008.4 - 12.2 - - 10 - - - -
20/06:00am 24.6 ENE 4 7 1007.8 - 12.2 - Partly cloudy 10 - - - -
20/05:40am 24.6 ENE 4 5 1007.8 - 12.2 - Partly cloudy 10 - - - -
20/05:30am 24.5 NE 4 8 1007.8 - 12.0 - Partly cloudy 6 - - - -
20/05:10am 24.7 N 12 17 1008.0 - 6.2 - Partly cloudy 2 - - - -
20/05:00am 25.1 ENE 5 8 1007.2 - 1.0 - Partly cloudy 10 - - - -
20/04:30am 25.0 ENE 5 7 1007.0 - 1.0 - Partly cloudy 10 - - - -
20/04:00am 25.0 ENE 5 8 1006.6 - 1.0 - - 10 - - - -
20/03:30am 25.1 ENE 5 8 1006.6 - 1.0 - - 10 - - - -
20/03:00am 25.0 ENE 5 9 1006.4 - 1.0 - Mostly clear 10 - - - -
20/02:30am 24.9 NE 5 8 1007.0 - 1.0 - Partly cloudy 10 - - - -
20/02:00am 25.0 ENE 3 5 1007.2 - 1.0 - - 10 - - - -
20/01:30am 25.0 ENE 4 7 1007.5 - 1.0 - - 10 - - - -
20/01:00am 24.9 ENE 4 5 1007.9 - 1.0 - - 10 - - - -
20/12:30am 24.9 ENE 3 5 1008.5 - 1.0 - - 10 - - - -
20/12:00am 24.9 ENE 5 7 1008.3 - 1.0 - - 10 - - - -
 
Date/Time
EST
Temp
°C
Wind Pressure Rain since
9am
mm
Weather Cloud Vis
km
Sea
Height
m
Swell
Dir  Spd
kts
Gust
kts
hPa Trend Height
m
Period
s
Dir
19/11:30pm 25.0 ENE 5 7 1008.7 - 0.8 - - 10 - - - -
19/11:00pm 25.1 ENE 4 6 1008.8 - 0.8 - - 10 - - - -
19/10:30pm 25.2 ENE 4 6 1008.8 - 0.8 - - 10 - - - -
19/10:00pm 25.2 NE 4 7 1008.8 - 0.8 - - 10 - - - -
19/09:30pm 25.1 ENE 3 5 1008.8 - 0.8 - - 10 - - - -
19/09:00pm 25.1 E 2 3 1008.3 - 0.8 - - 10 - - - -
19/08:30pm 24.9 NNE 3 4 1008.4 - 0.8 - - 10 - - - -
19/08:00pm 25.2 NNW 3 5 1008.2 - 0.8 - Partly cloudy 10 - - - -
19/07:30pm 25.2 WNW 1 2 1007.9 - 0.8 - Partly cloudy 10 - - - -
19/07:27pm 25.2 WNW 1 3 1007.9 - 0.8 - Partly cloudy 10 - - - -
19/07:09pm 25.4 WNW 11 20 1007.7 - 0.4 - Partly cloudy 6 - - - -
19/07:00pm 28.3 W 11 17 1007.5 - 0.2 - - 10 - - - -
19/06:30pm 28.7 NW 5 8 1006.9 - 0.2 - Partly cloudy 10 - - - -
19/06:00pm 29.1 NNW 6 9 1006.0 - 0.2 - - 10 - - - -
19/05:30pm 29.9 NNW 9 12 1006.2 - 0.2 - Partly cloudy 10 - - - -
19/05:00pm 30.5 NW 10 14 1006.0 - 0.2 - - 10 - - - -
19/04:30pm 30.6 NNW 10 15 1006.0 - 0.2 - Partly cloudy 10 - - - -
19/04:00pm 30.4 N 12 17 1006.0 - 0.2 - Partly cloudy 10 - - - -
19/03:30pm 30.9 N 11 13 1006.1 - 0.2 - Partly cloudy 10 - - - -
19/03:00pm 30.1 N 10 16 1006.3 - 0.2 - Mostly clear 10 - - - -
19/02:30pm 29.9 N 9 17 1006.9 - 0.2 - Partly cloudy 10 - - - -
19/02:00pm 29.9 NNW 9 15 1007.4 - 0.0 - - 10 - - - -
19/01:30pm 29.7 NNW 8 12 1007.7 - 0.0 - Partly cloudy 10 - - - -
19/01:00pm 29.3 N 7 12 1008.1 - 0.0 - - 10 - - - -
19/12:30pm 29.3 NNW 9 15 1008.4 - 0.0 - Partly cloudy 10 - - - -
19/12:00pm 28.0 N 3 5 1008.7 - 0.0 - Partly cloudy 10 - - - -
19/11:30am 26.9 NNW 14 21 1009.5 - 0.0 - Partly cloudy 10 - - - -
19/11:00am 30.0 NW 11 15 1009.1 - 0.0 - Partly cloudy 10 - - - -
19/10:30am 29.9 N 5 10 1009.3 - 0.0 - Partly cloudy 10 - - - -
19/10:00am 29.1 NNE 7 11 1009.6 - 0.0 - Partly cloudy 10 - - - -
19/09:30am 28.5 N 6 10 1009.7 - 0.0 - - 10 - - - -
19/09:00am 27.6 NNE 5 9 1009.6 - 11.4 - - 10 - - - -
19/08:30am 26.8 NE 5 7 1010.0 - 11.4 - - 10 - - - -
19/08:06am 26.3 E 3 4 1010.0 - 11.4 - - 10 - - - -
19/08:00am 26.0 E 3 5 1010.0 - 11.4 - - 10 - - - -
19/07:30am 25.3 SSE 3 6 1009.6 - 11.4 - Partly cloudy 8 - - - -
19/07:12am 25.3 CALM 0 0 1009.5 - 11.4 - Partly cloudy 10 - - - -

Other Formats:

Comma delimited format used in spreadsheet applications
http://www.bom.gov.au/fwo/IDQ60701/IDQ60701.94170.axf

JavaScript Object Notation format (JSON) in row-major order
http://www.bom.gov.au/fwo/IDQ60701/IDQ60701.94170.json